Time;durP1;ratioP1;P1;durP2;ratioP2;P2;SDS_P1;SDS_P2;PMS_P1;PMS_P2;Temp;Humidity;BMP_temperature;BMP_pressure;BME280_temperature;BME280_humidity;BME280_pressure;Samples;Min_cycle;Max_cycle;Signal;HPM_P1;HPM_P2
2023/03/30 00:01:16;;;;;;;;;;;;;;;14.41;93.80;99764.91;7356676;19;19949;-57
2023/03/30 00:03:44;;;;;;;;;;;;;;;14.40;94.08;99772.03;7352366;19;19923;-59
2023/03/30 00:06:19;;;;;;;;;;;;;;;14.39;93.52;99766.94;7354591;19;21116;-62
2023/03/30 00:08:47;;;;;;;;;;;;;;;14.40;93.75;99763.28;7357826;19;20881;-58
2023/03/30 00:11:16;;;;;;;;;;;;;;;14.37;93.70;99769.81;7349329;19;20387;-61
2023/03/30 00:13:43;;;;;;;;;;;;;;;14.35;93.44;99771.00;7352467;19;19978;-59
2023/03/30 00:16:12;;;;;;;;;;;;;;;14.34;93.72;99778.09;7352336;19;20565;-63
2023/03/30 00:18:39;;;;;;;;;;;;;;;14.34;93.30;99769.34;7341765;19;19926;-61
2023/03/30 00:21:08;;;;;;;;;;;;;;;14.35;93.44;99773.63;7353346;19;19966;-58
2023/03/30 00:23:35;;;;;;;;;;;;;;;14.36;93.44;99777.91;7349178;19;19951;-59
2023/03/30 00:26:02;;;;;;;;;;;;;;;14.36;92.98;99777.91;7353283;19;19930;-60
2023/03/30 00:28:30;;;;;;;;;;;;;;;14.32;92.36;99769.56;7356100;19;19911;-59
2023/03/30 00:30:57;;;;;;;;;;;;;;;14.31;92.06;99785.66;7352395;19;19922;-61
2023/03/30 00:33:24;;;;;;;;;;;;;;;14.31;91.91;99772.41;7351839;19;19921;-57
2023/03/30 00:36:10;;;;;;;;;;;;;;;14.29;91.92;99766.50;7355778;19;19924;-57
2023/03/30 00:38:37;;;;;;;;;;;;;;;14.28;91.47;99772.81;7356407;19;19923;-60
2023/03/30 00:41:05;;;;;;;;;;;;;;;14.27;91.25;99764.09;7351289;19;20026;-56
2023/03/30 00:43:32;;;;;;;;;;;;;;;14.30;91.19;99770.78;7355060;19;19917;-61
2023/03/30 00:46:00;;;;;;;;;;;;;;;14.31;91.25;99770.59;7355918;19;19923;-59
2023/03/30 00:48:29;;;;;;;;;;;;;;;14.32;91.27;99755.53;7352085;19;19929;-60
2023/03/30 00:50:57;;;;;;;;;;;;;;;14.32;91.04;99756.34;7350313;19;20516;-61
2023/03/30 00:53:25;;;;;;;;;;;;;;;14.33;91.57;99735.97;7351215;19;19911;-60
2023/03/30 00:55:56;;;;;;;;;;;;;;;14.34;91.26;99741.06;7353114;19;20171;-62
2023/03/30 00:58:24;;;;;;;;;;;;;;;14.27;90.17;99740.25;7355688;19;20692;-58
2023/03/30 01:00:51;;;;;;;;;;;;;;;14.26;89.97;99741.28;7348817;19;20369;-60
2023/03/30 01:03:28;;;;;;;;;;;;;;;14.24;89.80;99747.78;7352927;19;20015;-60
2023/03/30 01:05:56;;;;;;;;;;;;;;;14.21;89.67;99745.53;7344260;19;19927;-60
2023/03/30 01:08:25;;;;;;;;;;;;;;;14.20;89.51;99738.63;7355921;19;20694;-61
2023/03/30 01:10:54;;;;;;;;;;;;;;;14.18;89.15;99753.88;7352039;19;19957;-60
2023/03/30 01:13:21;;;;;;;;;;;;;;;14.22;90.08;99752.47;7353510;19;20163;-59
2023/03/30 01:15:52;;;;;;;;;;;;;;;14.23;90.50;99754.91;7349845;19;19915;-60
2023/03/30 01:18:26;;;;;;;;;;;;;;;14.25;90.42;99747.56;7350135;19;19922;-61
2023/03/30 01:21:02;;;;;;;;;;;;;;;14.20;89.64;99750.03;7352453;19;19927;-61
2023/03/30 01:23:42;;;;;;;;;;;;;;;14.19;88.98;99742.28;7351815;19;19959;-62
2023/03/30 01:26:17;;;;;;;;;;;;;;;14.19;89.99;99748.38;7354823;19;19944;-60
2023/03/30 01:28:44;;;;;;;;;;;;;;;14.18;90.09;99743.28;7354047;19;19919;-59
2023/03/30 01:31:24;;;;;;;;;;;;;;;14.14;90.12;99741.06;7338252;19;19923;-59
2023/03/30 01:34:01;;;;;;;;;;;;;;;14.09;90.58;99740.03;7350330;19;19971;-59
2023/03/30 01:36:35;;;;;;;;;;;;;;;14.05;90.70;99725.59;7353005;19;19922;-57
2023/03/30 01:39:04;;;;;;;;;;;;;;;14.00;91.04;99738.59;7354721;19;19953;-61
2023/03/30 01:41:40;;;;;;;;;;;;;;;13.99;91.83;99732.50;7350313;19;19921;-60
2023/03/30 01:44:17;;;;;;;;;;;;;;;13.99;92.39;99752.84;7351725;19;19918;-60
2023/03/30 01:46:48;;;;;;;;;;;;;;;13.99;93.68;99756.31;7352607;19;19923;-60
2023/03/30 01:49:20;;;;;;;;;;;;;;;13.98;94.81;99754.66;7358181;19;19919;-60
2023/03/30 01:52:00;;;;;;;;;;;;;;;13.91;94.73;99748.56;7357634;19;20044;-59
2023/03/30 01:54:33;;;;;;;;;;;;;;;13.89;95.64;99755.06;7362983;19;21109;-63
2023/03/30 01:57:05;;;;;;;;;;;;;;;13.87;96.39;99757.91;7351514;19;19933;-60
2023/03/30 01:59:38;;;;;;;;;;;;;;;13.83;96.31;99764.59;7361593;19;20532;-60
2023/03/30 02:02:07;;;;;;;;;;;;;;;13.76;96.23;99750.56;7355375;19;19911;-61
2023/03/30 02:04:37;;;;;;;;;;;;;;;13.71;95.80;99771.50;7360714;19;19935;-59
2023/03/30 02:07:09;;;;;;;;;;;;;;;13.63;96.03;99747.88;7356261;19;19947;-60
2023/03/30 02:09:37;;;;;;;;;;;;;;;13.63;96.41;99759.28;7357349;19;19986;-60
2023/03/30 02:12:04;;;;;;;;;;;;;;;13.59;96.34;99752.75;7357939;19;19926;-61
2023/03/30 02:14:33;;;;;;;;;;;;;;;13.52;95.24;99764.31;7361910;19;20190;-60
2023/03/30 02:17:05;;;;;;;;;;;;;;;13.45;94.67;99751.09;7352076;19;19915;-60
2023/03/30 02:19:36;;;;;;;;;;;;;;;13.42;93.77;99759.41;7357721;19;19954;-58
2023/03/30 02:22:05;;;;;;;;;;;;;;;13.43;93.92;99762.88;7346521;19;19915;-62
2023/03/30 02:24:32;;;;;;;;;;;;;;;13.41;93.34;99764.91;7362126;19;20325;-59
2023/03/30 02:27:01;;;;;;;;;;;;;;;13.42;93.36;99772.63;7353573;19;19986;-59
2023/03/30 02:29:30;;;;;;;;;;;;;;;13.46;94.29;99771.19;7361232;19;20492;-60
2023/03/30 02:31:58;;;;;;;;;;;;;;;13.43;93.20;99773.44;7352472;19;19986;-60
2023/03/30 02:34:35;;;;;;;;;;;;;;;13.45;92.67;99769.59;7359119;19;19949;-60
2023/03/30 02:37:10;;;;;;;;;;;;;;;13.47;92.07;99764.91;7358290;19;20674;-60
2023/03/30 02:39:47;;;;;;;;;;;;;;;13.47;90.48;99772.03;7359932;19;20596;-58
2023/03/30 02:42:25;;;;;;;;;;;;;;;13.49;89.87;99770.81;7354685;19;19919;-60
2023/03/30 02:44:53;;;;;;;;;;;;;;;13.49;89.85;99770.81;7361659;19;19974;-58
2023/03/30 02:47:20;;;;;;;;;;;;;;;13.49;89.48;99767.38;7346356;19;20227;-60
2023/03/30 02:49:57;;;;;;;;;;;;;;;13.44;87.26;99765.31;7353398;19;20947;-59
2023/03/30 02:52:25;;;;;;;;;;;;;;;13.39;85.87;99778.31;7353221;19;19915;-60
2023/03/30 02:54:58;;;;;;;;;;;;;;;13.45;86.71;99784.63;7359785;19;19990;-60
2023/03/30 02:57:30;;;;;;;;;;;;;;;13.44;85.93;99788.28;7358992;19;19927;-60
2023/03/30 03:00:01;;;;;;;;;;;;;;;13.40;85.79;99777.31;7359827;19;19963;-61
2023/03/30 03:02:30;;;;;;;;;;;;;;;13.43;86.75;99786.66;7354994;19;20740;-61
2023/03/30 03:05:02;;;;;;;;;;;;;;;13.44;87.67;99778.53;7358590;19;20256;-60
2023/03/30 03:07:32;;;;;;;;;;;;;;;13.45;87.83;99784.63;7358117;19;20027;-61
2023/03/30 03:10:00;;;;;;;;;;;;;;;13.44;88.77;99786.47;7356518;19;20003;-60
2023/03/30 03:12:28;;;;;;;;;;;;;;;13.39;88.32;99786.22;7355892;19;20332;-61
2023/03/30 03:14:55;;;;;;;;;;;;;;;13.39;89.43;99788.88;7345836;19;19939;-60
2023/03/30 03:17:22;;;;;;;;;;;;;;;13.38;89.27;99789.06;7352553;19;19923;-59
2023/03/30 03:19:49;;;;;;;;;;;;;;;13.36;89.63;99785.81;7352153;19;19918;-61
2023/03/30 03:22:17;;;;;;;;;;;;;;;13.31;89.54;99786.38;7353954;19;19923;-60
2023/03/30 03:24:44;;;;;;;;;;;;;;;13.25;89.23;99788.00;7355186;19;20063;-59
2023/03/30 03:27:11;;;;;;;;;;;;;;;13.23;89.76;99782.09;7358279;19;19955;-59
2023/03/30 03:29:38;;;;;;;;;;;;;;;13.23;90.13;99784.72;7354794;19;21508;-61
2023/03/30 03:32:05;;;;;;;;;;;;;;;13.21;90.28;99785.94;7352458;19;19914;-60
2023/03/30 03:34:32;;;;;;;;;;;;;;;13.22;90.66;99795.50;7358722;19;19935;-61
2023/03/30 03:37:00;;;;;;;;;;;;;;;13.19;89.77;99798.53;7358771;19;19935;-61
2023/03/30 03:39:27;;;;;;;;;;;;;;;13.20;89.90;99797.53;7345643;19;20385;-61
2023/03/30 03:41:54;;;;;;;;;;;;;;;13.21;90.56;99796.50;7353756;19;19923;-61
2023/03/30 03:44:21;;;;;;;;;;;;;;;13.22;90.57;99792.84;7358219;19;20431;-58
2023/03/30 03:46:48;;;;;;;;;;;;;;;13.24;91.01;99801.41;7354079;19;20712;-60
2023/03/30 03:49:15;;;;;;;;;;;;;;;13.21;90.61;99796.50;7356493;19;20225;-61
2023/03/30 03:51:42;;;;;;;;;;;;;;;13.23;90.78;99797.94;7352990;19;19925;-62
2023/03/30 03:54:09;;;;;;;;;;;;;;;13.27;91.26;99799.19;7361769;19;20562;-61
2023/03/30 03:56:36;;;;;;;;;;;;;;;13.28;90.51;99794.72;7360448;19;19915;-63
2023/03/30 03:59:03;;;;;;;;;;;;;;;13.26;90.58;99784.31;7355312;19;19994;-61
2023/03/30 04:01:30;;;;;;;;;;;;;;;13.28;90.89;99789.44;7349947;19;19913;-62
2023/03/30 04:03:57;;;;;;;;;;;;;;;13.26;90.49;99788.78;7357077;19;20002;-60
2023/03/30 04:06:25;;;;;;;;;;;;;;;13.28;91.24;99789.44;7349357;19;19915;-65
2023/03/30 04:08:53;;;;;;;;;;;;;;;13.26;90.96;99781.69;7357221;19;20316;-57
2023/03/30 04:11:21;;;;;;;;;;;;;;;13.25;90.94;99782.72;7353292;19;19982;-59
2023/03/30 04:13:48;;;;;;;;;;;;;;;13.27;91.40;99790.44;7350332;19;19915;-60
2023/03/30 04:16:15;;;;;;;;;;;;;;;13.23;90.64;99786.56;7355662;19;19918;-63
2023/03/30 04:18:42;;;;;;;;;;;;;;;13.23;90.87;99797.13;7350977;19;19915;-60
2023/03/30 04:21:11;;;;;;;;;;;;;;;13.21;91.17;99792.03;7352805;19;19926;-60
2023/03/30 04:23:44;;;;;;;;;;;;;;;13.20;90.97;99790.41;7355220;19;19945;-62
2023/03/30 04:26:12;;;;;;;;;;;;;;;13.18;91.18;99786.31;7356771;19;19925;-60
2023/03/30 04:28:39;;;;;;;;;;;;;;;13.16;90.97;99790.97;7353955;19;19919;-59
2023/03/30 04:31:09;;;;;;;;;;;;;;;13.14;91.39;99793.00;7342799;19;19919;-61
2023/03/30 04:33:43;;;;;;;;;;;;;;;13.11;91.48;99807.41;7351761;19;19915;-59
2023/03/30 04:36:16;;;;;;;;;;;;;;;13.03;90.94;99804.91;7354356;19;19923;-58
2023/03/30 04:38:44;;;;;;;;;;;;;;;13.02;91.53;99815.66;7353211;19;20414;-60
2023/03/30 04:41:12;;;;;;;;;;;;;;;12.99;92.05;99801.03;7351477;19;20444;-61
2023/03/30 04:43:39;;;;;;;;;;;;;;;12.99;91.81;99816.88;7354888;19;19933;-58
2023/03/30 04:46:06;;;;;;;;;;;;;;;12.95;91.24;99823.56;7354753;19;20336;-60
2023/03/30 04:48:33;;;;;;;;;;;;;;;12.94;91.40;99821.09;7349629;19;20333;-61
2023/03/30 04:51:00;;;;;;;;;;;;;;;12.89;90.68;99824.31;7352303;19;20001;-61
2023/03/30 04:53:27;;;;;;;;;;;;;;;12.86;91.28;99836.06;7352550;19;19922;-61
2023/03/30 04:55:54;;;;;;;;;;;;;;;12.85;91.26;99831.78;7345472;19;19915;-59
2023/03/30 04:58:24;;;;;;;;;;;;;;;12.82;91.65;99832.19;7356386;19;20344;-61
2023/03/30 05:00:52;;;;;;;;;;;;;;;12.83;91.54;99836.47;7351640;19;19923;-59
2023/03/30 05:03:19;;;;;;;;;;;;;;;12.80;90.92;99831.53;7353282;19;20348;-62
2023/03/30 05:05:48;;;;;;;;;;;;;;;12.83;91.42;99839.09;7353482;19;20386;-60
2023/03/30 05:08:15;;;;;;;;;;;;;;;12.85;91.30;99852.09;7354061;19;20260;-60
2023/03/30 05:10:42;;;;;;;;;;;;;;;12.85;91.31;99850.25;7352150;19;19927;-57
2023/03/30 05:13:09;;;;;;;;;;;;;;;12.83;91.15;99857.59;7354531;19;20567;-59
2023/03/30 05:15:36;;;;;;;;;;;;;;;12.79;90.51;99860.78;7355074;19;19935;-61
2023/03/30 05:18:03;;;;;;;;;;;;;;;12.76;90.66;99863.81;7352816;19;19956;-61
2023/03/30 05:20:31;;;;;;;;;;;;;;;12.74;90.84;99865.84;7344706;19;19930;-61
2023/03/30 05:22:57;;;;;;;;;;;;;;;12.73;90.96;99869.47;7348744;19;19918;-60
2023/03/30 05:25:24;;;;;;;;;;;;;;;12.70;91.07;99877.75;7360428;19;20517;-60
2023/03/30 05:27:52;;;;;;;;;;;;;;;12.70;91.21;99881.22;7360196;19;20127;-60
2023/03/30 05:30:19;;;;;;;;;;;;;;;12.73;91.26;99878.22;7359906;19;20420;-61
2023/03/30 05:32:45;;;;;;;;;;;;;;;12.74;91.46;99887.78;7353503;19;20254;-60
2023/03/30 05:35:12;;;;;;;;;;;;;;;12.78;91.73;99889.00;7363739;19;19947;-67
2023/03/30 05:37:40;;;;;;;;;;;;;;;12.86;91.91;99904.72;7363785;19;19999;-61
2023/03/30 05:40:08;;;;;;;;;;;;;;;12.94;92.21;99910.88;7362276;19;19922;-60
2023/03/30 05:42:35;;;;;;;;;;;;;;;12.95;90.40;99904.59;7360416;19;19948;-62
2023/03/30 05:45:03;;;;;;;;;;;;;;;12.93;90.31;99904.78;7365163;19;19922;-61
2023/03/30 05:47:30;;;;;;;;;;;;;;;12.95;90.42;99909.88;7347906;19;19919;-60
2023/03/30 05:49:56;;;;;;;;;;;;;;;12.95;90.26;99917.78;7361357;19;19931;-62
2023/03/30 05:52:23;;;;;;;;;;;;;;;12.96;90.80;99920.22;7356748;19;20006;-60
2023/03/30 05:54:50;;;;;;;;;;;;;;;13.00;91.12;99915.41;7362001;19;19926;-59
2023/03/30 05:57:17;;;;;;;;;;;;;;;12.97;90.31;99913.94;7359239;19;19919;-62
2023/03/30 05:59:45;;;;;;;;;;;;;;;12.96;90.25;99914.94;7359883;19;20472;-60
2023/03/30 06:02:12;;;;;;;;;;;;;;;12.94;90.13;99921.44;7353403;19;19915;-59
2023/03/30 06:04:39;;;;;;;;;;;;;;;12.96;90.73;99919.41;7360558;19;20299;-60
2023/03/30 06:07:06;;;;;;;;;;;;;;;12.97;91.25;99923.69;7359731;19;19978;-59
2023/03/30 06:09:33;;;;;;;;;;;;;;;12.99;90.61;99922.50;7359585;19;19974;-59
2023/03/30 06:12:01;;;;;;;;;;;;;;;12.94;89.60;99930.19;7353663;19;19922;-61
2023/03/30 06:14:28;;;;;;;;;;;;;;;12.93;89.86;99936.47;7349490;19;20539;-59
2023/03/30 06:16:55;;;;;;;;;;;;;;;12.98;89.99;99931.41;7354241;19;19994;-60
2023/03/30 06:19:23;;;;;;;;;;;;;;;13.01;90.43;99935.50;7356952;19;19925;-60
2023/03/30 06:21:50;;;;;;;;;;;;;;;13.00;89.98;99942.63;7351247;19;19929;-61
2023/03/30 06:24:18;;;;;;;;;;;;;;;13.05;90.06;99942.06;7357236;19;20520;-62
2023/03/30 06:26:47;;;;;;;;;;;;;;;13.04;89.21;99946.50;7358733;19;19937;-62
2023/03/30 06:29:14;;;;;;;;;;;;;;;13.04;88.93;99941.22;7355876;19;19926;-60
2023/03/30 06:31:41;;;;;;;;;;;;;;;13.07;89.25;99938.19;7355107;19;19921;-60
2023/03/30 06:34:08;;;;;;;;;;;;;;;13.12;89.31;99943.75;7355648;19;21531;-60
2023/03/30 06:36:35;;;;;;;;;;;;;;;13.15;89.16;99940.75;7360155;19;19929;-63
2023/03/30 06:39:11;;;;;;;;;;;;;;;13.23;89.50;99945.88;7348917;19;19918;-61
2023/03/30 06:41:38;;;;;;;;;;;;;;;13.35;89.22;99945.34;7355225;19;19926;-61
2023/03/30 06:44:09;;;;;;;;;;;;;;;13.44;88.45;99944.19;7358098;19;19918;-58
2023/03/30 06:46:36;;;;;;;;;;;;;;;13.52;88.60;99954.59;7356422;19;19919;-60
2023/03/30 06:49:02;;;;;;;;;;;;;;;13.60;87.67;99952.66;7354474;19;19931;-58
2023/03/30 06:51:30;;;;;;;;;;;;;;;13.69;88.32;99948.00;7353011;19;20178;-60
2023/03/30 06:53:56;;;;;;;;;;;;;;;13.74;87.39;99953.53;7358428;19;19982;-63
2023/03/30 06:56:23;;;;;;;;;;;;;;;13.76;86.17;99961.28;7359665;19;19923;-62
2023/03/30 06:58:51;;;;;;;;;;;;;;;13.74;86.49;99963.28;7358365;19;19915;-62
2023/03/30 07:01:18;;;;;;;;;;;;;;;13.73;86.67;99965.09;7353196;19;21629;-61
2023/03/30 07:03:46;;;;;;;;;;;;;;;13.74;86.69;99969.41;7356125;19;20005;-62
2023/03/30 07:06:14;;;;;;;;;;;;;;;13.75;86.29;99972.84;7350502;19;19927;-60
2023/03/30 07:08:43;;;;;;;;;;;;;;;13.79;86.03;99976.75;7357469;19;20337;-61
2023/03/30 07:11:10;;;;;;;;;;;;;;;13.83;85.66;99972.69;7355977;19;20098;-60
2023/03/30 07:13:38;;;;;;;;;;;;;;;13.85;85.65;99976.78;7357037;19;19927;-62
2023/03/30 07:16:05;;;;;;;;;;;;;;;13.87;85.77;99977.38;7357810;19;19929;-60
2023/03/30 07:18:32;;;;;;;;;;;;;;;13.87;85.75;99973.94;7357296;19;19923;-57
2023/03/30 07:20:59;;;;;;;;;;;;;;;13.91;85.88;99983.13;7354601;19;19937;-59
2023/03/30 07:23:27;;;;;;;;;;;;;;;13.94;85.99;99978.25;7355549;19;20514;-57
2023/03/30 07:25:54;;;;;;;;;;;;;;;13.95;86.09;99987.81;7358833;19;19915;-61
2023/03/30 07:28:24;;;;;;;;;;;;;;;13.97;85.67;99984.97;7359142;19;19935;-61
2023/03/30 07:30:52;;;;;;;;;;;;;;;13.97;85.83;99991.06;7357110;19;20009;-60
2023/03/30 07:33:20;;;;;;;;;;;;;;;13.97;85.64;99985.78;7360144;19;19927;-63
2023/03/30 07:35:48;;;;;;;;;;;;;;;13.97;85.15;99987.59;7363252;19;19919;-60
2023/03/30 07:38:16;;;;;;;;;;;;;;;13.91;84.73;99989.25;7364033;19;20316;-62
2023/03/30 07:40:43;;;;;;;;;;;;;;;13.95;85.27;100001.06;7362810;19;20239;-60
2023/03/30 07:43:10;;;;;;;;;;;;;;;14.00;85.38;99998.63;7361333;19;19923;-58
2023/03/30 07:45:37;;;;;;;;;;;;;;;14.05;85.19;99990.94;7357917;19;20606;-59
2023/03/30 07:48:04;;;;;;;;;;;;;;;14.09;84.81;99994.81;7358686;19;19940;-60
2023/03/30 07:50:31;;;;;;;;;;;;;;;14.14;85.14;100004.81;7361662;19;19927;-59
2023/03/30 07:52:58;;;;;;;;;;;;;;;14.16;84.39;100007.25;7358081;19;19919;-59
2023/03/30 07:55:27;;;;;;;;;;;;;;;14.14;84.26;100002.97;7361824;19;19926;-60
2023/03/30 07:57:55;;;;;;;;;;;;;;;14.17;84.76;99998.31;7360992;19;19919;-59
2023/03/30 08:00:23;;;;;;;;;;;;;;;14.20;84.59;100004.03;7361036;19;19982;-61
2023/03/30 08:02:50;;;;;;;;;;;;;;;14.23;84.45;100006.25;7358624;19;19961;-58
2023/03/30 08:05:17;;;;;;;;;;;;;;;14.25;84.02;99998.97;7361866;19;19926;-60
2023/03/30 08:07:45;;;;;;;;;;;;;;;14.32;83.84;100001.66;7359903;19;19930;-59
2023/03/30 08:10:13;;;;;;;;;;;;;;;14.41;83.83;100006.59;7362509;19;20491;-64
2023/03/30 08:12:40;;;;;;;;;;;;;;;14.49;83.37;100006.41;7360661;19;19975;-63
2023/03/30 08:15:08;;;;;;;;;;;;;;;14.65;82.88;100005.25;7363469;19;19922;-61
2023/03/30 08:17:35;;;;;;;;;;;;;;;14.82;82.56;100009.16;7357178;19;19926;-60
2023/03/30 08:20:06;;;;;;;;;;;;;;;14.86;81.45;100005.09;7362459;19;19970;-59
2023/03/30 08:22:34;;;;;;;;;;;;;;;14.94;81.50;100020.78;7363771;19;19914;-58
2023/03/30 08:25:01;;;;;;;;;;;;;;;15.09;80.31;100020.59;7365558;19;19914;-62
2023/03/30 08:27:28;;;;;;;;;;;;;;;15.18;79.68;100019.41;7358938;19;19956;-60
2023/03/30 08:29:55;;;;;;;;;;;;;;;15.19;79.86;100026.31;7360681;19;20284;-61
2023/03/30 08:32:22;;;;;;;;;;;;;;;15.22;79.99;100035.72;7356500;19;19922;-60
2023/03/30 08:34:50;;;;;;;;;;;;;;;15.17;79.37;100040.81;7360273;19;20429;-57
2023/03/30 08:37:18;;;;;;;;;;;;;;;15.19;80.18;100034.28;7359744;19;19946;-62
2023/03/30 08:39:45;;;;;;;;;;;;;;;15.21;79.86;100040.19;7357227;19;20283;-60
2023/03/30 08:42:13;;;;;;;;;;;;;;;15.25;79.31;100035.28;7360219;19;20384;-63
2023/03/30 08:44:41;;;;;;;;;;;;;;;15.28;79.05;100034.91;7361554;19;19923;-59
2023/03/30 08:47:12;;;;;;;;;;;;;;;15.37;79.49;100044.28;7359804;19;20745;-59
2023/03/30 08:49:42;;;;;;;;;;;;;;;15.36;79.54;100038.16;7359997;19;19927;-61
2023/03/30 08:52:13;;;;;;;;;;;;;;;15.44;79.08;100045.09;7357470;19;20299;-61
2023/03/30 08:54:40;;;;;;;;;;;;;;;15.52;80.07;100044.94;7361839;19;20724;-60
2023/03/30 08:57:19;;;;;;;;;;;;;;;15.60;78.60;100043.91;7354633;19;20474;-61
2023/03/30 08:59:52;;;;;;;;;;;;;;;15.64;77.40;100048.63;7360660;19;20558;-61
2023/03/30 09:02:27;;;;;;;;;;;;;;;15.63;77.67;100049.63;7356604;19;19918;-62
2023/03/30 09:04:56;;;;;;;;;;;;;;;15.58;77.48;100049.44;7361039;19;19922;-62
2023/03/30 09:07:26;;;;;;;;;;;;;;;15.58;77.96;100046.78;7360075;19;19918;-59
2023/03/30 09:09:54;;;;;;;;;;;;;;;15.60;77.36;100047.38;7359734;19;19919;-60
2023/03/30 09:12:36;;;;;;;;;;;;;;;15.67;77.02;100056.16;7358839;19;19922;-64
2023/03/30 09:15:13;;;;;;;;;;;;;;;15.71;76.42;100062.69;7358862;19;20159;-61
2023/03/30 09:17:42;;;;;;;;;;;;;;;15.73;77.28;100065.13;7356449;19;19939;-60
2023/03/30 09:20:19;;;;;;;;;;;;;;;15.69;75.92;100063.91;7359495;19;20310;-61
2023/03/30 09:22:47;;;;;;;;;;;;;;;15.64;76.31;100066.38;7359137;19;19929;-62
2023/03/30 09:25:16;;;;;;;;;;;;;;;15.69;76.08;100058.59;7360725;19;19951;-62
2023/03/30 09:27:46;;;;;;;;;;;;;;;15.73;75.16;100058.00;7359883;19;20365;-62
2023/03/30 09:30:19;;;;;;;;;;;;;;;15.78;75.68;100054.72;7357968;19;20095;-61
2023/03/30 09:32:52;;;;;;;;;;;;;;;15.75;75.96;100061.22;7356859;19;19919;-61
2023/03/30 09:35:24;;;;;;;;;;;;;;;15.75;76.70;100069.19;7359835;19;20368;-58
2023/03/30 09:37:52;;;;;;;;;;;;;;;15.74;77.30;100072.91;7360597;19;20656;-58
2023/03/30 09:40:23;;;;;;;;;;;;;;;15.72;77.93;100074.09;7357116;19;19927;-61
2023/03/30 09:42:56;;;;;;;;;;;;;;;15.66;78.75;100069.59;7358465;19;19923;-58
2023/03/30 09:45:28;;;;;;;;;;;;;;;15.61;79.72;100067.56;7359180;19;20288;-60
2023/03/30 09:48:02;;;;;;;;;;;;;;;15.64;80.54;100074.31;7356727;19;20349;-59
2023/03/30 09:50:30;;;;;;;;;;;;;;;15.69;80.58;100070.03;7359453;19;19915;-61
2023/03/30 09:52:58;;;;;;;;;;;;;;;15.70;80.93;100068.16;7356190;19;19944;-60
2023/03/30 09:55:27;;;;;;;;;;;;;;;15.73;80.17;100076.56;7361086;19;20899;-60
2023/03/30 09:58:10;;;;;;;;;;;;;;;15.79;79.76;100077.56;7356954;19;19927;-65
2023/03/30 10:00:38;;;;;;;;;;;;;;;15.88;79.48;100078.19;7356731;19;20030;-58
2023/03/30 10:03:05;;;;;;;;;;;;;;;15.91;77.95;100080.41;7355558;19;21634;-59
2023/03/30 10:05:34;;;;;;;;;;;;;;;15.90;77.78;100073.50;7357389;19;19926;-61
2023/03/30 10:08:04;;;;;;;;;;;;;;;15.95;78.71;100071.81;7364241;19;21184;-59
2023/03/30 10:10:35;;;;;;;;;;;;;;;16.03;78.10;100066.31;7365440;19;19926;-60
2023/03/30 10:13:03;;;;;;;;;;;;;;;16.15;78.78;100075.25;7366055;19;20006;-61
2023/03/30 10:15:31;;;;;;;;;;;;;;;16.30;78.87;100077.69;7367169;19;19968;-58
2023/03/30 10:18:05;;;;;;;;;;;;;;;16.41;77.59;100085.00;7361235;19;19926;-61
2023/03/30 10:20:35;;;;;;;;;;;;;;;16.44;76.12;100091.75;7365108;19;19925;-61
2023/03/30 10:23:04;;;;;;;;;;;;;;;16.39;76.69;100097.69;7366133;19;19915;-62
2023/03/30 10:25:32;;;;;;;;;;;;;;;16.38;77.49;100095.22;7366108;19;20217;-62
2023/03/30 10:28:01;;;;;;;;;;;;;;;16.35;76.90;100096.47;7364819;19;19923;-62
2023/03/30 10:30:28;;;;;;;;;;;;;;;16.39;76.96;100091.56;7365857;19;19911;-61
2023/03/30 10:32:57;;;;;;;;;;;;;;;16.37;77.26;100086.44;7361353;19;19970;-59
2023/03/30 10:35:34;;;;;;;;;;;;;;;16.46;77.12;100090.50;7365500;19;19998;-63
2023/03/30 10:38:03;;;;;;;;;;;;;;;16.60;75.45;100091.31;7364448;19;20249;-62
2023/03/30 10:40:36;;;;;;;;;;;;;;;16.77;75.59;100088.97;7361303;19;19927;-60
2023/03/30 10:43:05;;;;;;;;;;;;;;;16.91;73.15;100091.38;7364397;19;20339;-63
2023/03/30 10:45:32;;;;;;;;;;;;;;;17.01;73.28;100085.63;7365359;19;20020;-59
2023/03/30 10:48:09;;;;;;;;;;;;;;;17.06;71.88;100091.91;7357785;19;20015;-62
2023/03/30 10:50:41;;;;;;;;;;;;;;;17.08;72.45;100089.03;7361071;19;19961;-58
2023/03/30 10:53:17;;;;;;;;;;;;;;;17.13;72.03;100083.06;7364785;19;20560;-60
2023/03/30 10:55:45;;;;;;;;;;;;;;;17.24;71.80;100088.53;7361693;19;19927;-58
2023/03/30 10:58:21;;;;;;;;;;;;;;;17.34;71.39;100088.06;7363362;19;19933;-64
2023/03/30 11:00:58;;;;;;;;;;;;;;;17.39;69.85;100089.03;7363144;19;19923;-60
2023/03/30 11:03:28;;;;;;;;;;;;;;;17.39;69.89;100085.56;7360221;19;19919;-62
2023/03/30 11:05:57;;;;;;;;;;;;;;;17.45;70.19;100077.53;7360104;19;19915;-64
2023/03/30 11:08:29;;;;;;;;;;;;;;;17.50;69.83;100093.66;7364468;19;20268;-59
2023/03/30 11:10:58;;;;;;;;;;;;;;;17.49;70.34;100077.91;7362460;19;20244;-59
2023/03/30 11:13:29;;;;;;;;;;;;;;;17.42;70.38;100093.13;7361463;19;19911;-60
2023/03/30 11:16:06;;;;;;;;;;;;;;;17.31;70.86;100081.34;7360452;19;19922;-60
2023/03/30 11:18:35;;;;;;;;;;;;;;;17.19;72.27;100085.69;7358911;19;19931;-62
2023/03/30 11:21:05;;;;;;;;;;;;;;;17.19;72.60;100082.22;7361060;19;19922;-61
2023/03/30 11:23:42;;;;;;;;;;;;;;;17.21;73.22;100088.16;7361995;19;20317;-61
2023/03/30 11:26:11;;;;;;;;;;;;;;;17.25;73.77;100079.53;7361759;19;20225;-59
2023/03/30 11:28:46;;;;;;;;;;;;;;;17.28;73.58;100078.28;7364836;19;20017;-62
2023/03/30 11:31:25;;;;;;;;;;;;;;;17.28;74.43;100076.44;7361213;19;19944;-59
2023/03/30 11:33:56;;;;;;;;;;;;;;;17.32;73.61;100080.28;7362304;19;19918;-60
2023/03/30 11:36:30;;;;;;;;;;;;;;;17.34;72.97;100078.22;7360541;19;20257;-60
2023/03/30 11:39:02;;;;;;;;;;;;;;;17.31;72.68;100086.66;7364423;19;20488;-60
2023/03/30 11:41:47;;;;;;;;;;;;;;;17.29;73.25;100080.72;7361845;19;19920;-60
2023/03/30 11:44:14;;;;;;;;;;;;;;;17.39;72.71;100085.56;7362679;19;19930;-62
2023/03/30 11:46:50;;;;;;;;;;;;;;;17.46;72.00;100068.53;7359848;19;19922;-61
2023/03/30 11:49:24;;;;;;;;;;;;;;;17.53;69.99;100076.44;7360823;19;21398;-61
2023/03/30 11:52:03;;;;;;;;;;;;;;;17.55;69.48;100074.41;7358529;19;20389;-61
2023/03/30 11:54:33;;;;;;;;;;;;;;;17.63;69.42;100076.00;7362723;19;19910;-57
2023/03/30 11:57:01;;;;;;;;;;;;;;;17.65;70.08;100066.78;7360697;19;19922;-61
2023/03/30 11:59:35;;;;;;;;;;;;;;;17.70;69.29;100076.75;7356711;19;19922;-60
2023/03/30 12:02:12;;;;;;;;;;;;;;;17.77;69.69;100085.50;7356275;19;19939;-61
2023/03/30 12:04:46;;;;;;;;;;;;;;;17.78;67.98;100076.47;7359501;19;21521;-60
2023/03/30 12:07:24;;;;;;;;;;;;;;;17.79;67.25;100078.94;7361645;19;19938;-61
2023/03/30 12:09:55;;;;;;;;;;;;;;;17.80;67.41;100072.56;7354422;19;19956;-63
2023/03/30 12:12:27;;;;;;;;;;;;;;;17.76;66.95;100079.38;7348213;19;20163;-61
2023/03/30 12:15:04;;;;;;;;;;;;;;;17.79;68.99;100070.13;7358305;19;19926;-62
2023/03/30 12:17:41;;;;;;;;;;;;;;;17.77;67.61;100072.22;7358869;19;19947;-60
2023/03/30 12:20:08;;;;;;;;;;;;;;;17.67;69.01;100085.19;7360529;19;20374;-58
2023/03/30 12:22:36;;;;;;;;;;;;;;;17.59;71.54;100075.63;7358964;19;19925;-62
2023/03/30 12:25:11;;;;;;;;;;;;;;;17.56;74.44;100086.69;7361959;19;19939;-61
2023/03/30 12:27:51;;;;;;;;;;;;;;;17.59;76.20;100072.97;7357466;19;19935;-61
2023/03/30 12:30:27;;;;;;;;;;;;;;;17.61;75.07;100062.94;7358959;19;19918;-63
2023/03/30 12:32:59;;;;;;;;;;;;;;;17.54;72.57;100064.78;7359006;19;19935;-58
2023/03/30 12:35:44;;;;;;;;;;;;;;;17.60;71.67;100053.31;7361144;19;19915;-60
2023/03/30 12:38:15;;;;;;;;;;;;;;;17.62;69.63;100059.25;7360018;19;19941;-61
2023/03/30 12:40:45;;;;;;;;;;;;;;;17.62;68.23;100059.25;7357502;19;19930;-60
2023/03/30 12:43:14;;;;;;;;;;;;;;;17.65;68.75;100050.81;7361369;19;20337;-61
2023/03/30 12:46:00;;;;;;;;;;;;;;;17.66;68.09;100065.75;7357663;19;19935;-61
2023/03/30 12:48:38;;;;;;;;;;;;;;;17.72;67.07;100051.56;7354206;19;19918;-59
2023/03/30 12:51:13;;;;;;;;;;;;;;;17.72;67.51;100056.09;7354679;19;20447;-57
2023/03/30 12:53:50;;;;;;;;;;;;;;;17.72;67.77;100054.25;7358498;19;21624;-61
2023/03/30 12:56:25;;;;;;;;;;;;;;;17.81;67.78;100052.91;7358871;19;19931;-60